createdAt,value
2022-08-17T00:00:43.532Z,2.80
2022-08-17T00:01:26.273Z,2.77
2022-08-17T00:02:08.976Z,2.57
2022-08-17T00:03:00.851Z,2.60
2022-08-17T00:03:39.364Z,2.73
2022-08-17T00:04:12.516Z,2.40
2022-08-17T00:04:50.733Z,2.70
2022-08-17T00:05:23.439Z,2.63
2022-08-17T00:06:00.615Z,2.57
2022-08-17T00:06:32.986Z,2.57
2022-08-17T00:07:05.398Z,2.77
2022-08-17T00:07:40.360Z,2.70
2022-08-17T00:08:16.962Z,2.73
2022-08-17T00:08:53.788Z,2.80
2022-08-17T00:09:26.095Z,3.00
2022-08-17T00:09:58.442Z,2.73
2022-08-17T00:10:31.142Z,2.73
2022-08-17T00:11:09.014Z,3.20
2022-08-17T00:11:43.922Z,2.60
2022-08-17T00:12:43.054Z,3.10
2022-08-17T00:13:24.010Z,2.90
2022-08-17T00:13:58.254Z,2.67
2022-08-17T00:14:30.747Z,2.77
2022-08-17T00:15:03.968Z,2.83
2022-08-17T00:15:38.880Z,2.70
2022-08-17T00:16:13.762Z,2.70
2022-08-17T00:16:57.045Z,2.40
2022-08-17T00:17:32.607Z,3.13
2022-08-17T00:18:53.808Z,3.27
2022-08-17T00:19:07.834Z,2.80
2022-08-17T00:19:40.907Z,2.97
2022-08-17T00:20:14.166Z,2.63
2022-08-17T00:20:50.119Z,2.97
2022-08-17T00:21:25.358Z,2.60
2022-08-17T00:22:34.586Z,2.53
2022-08-17T00:23:05.846Z,2.80
2022-08-17T00:23:47.837Z,2.50
2022-08-17T00:24:21.814Z,2.87
2022-08-17T00:24:57.177Z,2.70
2022-08-17T00:25:29.522Z,3.00
2022-08-17T00:26:04.537Z,2.90
2022-08-17T00:26:44.744Z,2.90
2022-08-17T00:27:17.994Z,2.83
2022-08-17T00:27:50.346Z,2.60
2022-08-17T00:28:25.815Z,2.77
2022-08-17T00:28:58.146Z,3.10
2022-08-17T00:29:30.551Z,2.90
2022-08-17T00:30:03.791Z,2.60
2022-08-17T00:30:50.784Z,2.93
2022-08-17T00:31:24.209Z,2.57
2022-08-17T00:31:56.577Z,2.70
2022-08-17T00:33:13.602Z,3.27
2022-08-17T00:33:26.845Z,3.20
2022-08-17T00:33:59.636Z,3.07
2022-08-17T00:34:34.663Z,2.47
2022-08-17T00:35:10.101Z,2.50
2022-08-17T00:35:43.417Z,2.63
2022-08-17T00:36:18.918Z,2.50
2022-08-17T00:36:51.338Z,2.90
2022-08-17T00:37:23.659Z,2.77
2022-08-17T00:37:56.024Z,2.50
2022-08-17T00:38:32.241Z,2.83
2022-08-17T00:39:07.176Z,2.60
2022-08-17T00:39:40.001Z,3.37
2022-08-17T00:40:17.291Z,2.90
2022-08-17T00:40:51.808Z,2.80
2022-08-17T00:41:28.946Z,2.50
2022-08-17T00:42:16.017Z,3.20
2022-08-17T00:42:49.254Z,2.90
2022-08-17T00:43:26.515Z,2.70
2022-08-17T00:44:03.591Z,2.73
2022-08-17T00:44:35.924Z,2.60
2022-08-17T00:45:10.855Z,2.90
2022-08-17T00:45:45.939Z,2.60
2022-08-17T00:46:22.122Z,2.90
2022-08-17T00:46:57.443Z,2.67
2022-08-17T00:47:29.743Z,2.70
2022-08-17T00:48:02.117Z,2.40
2022-08-17T00:48:37.646Z,2.50
2022-08-17T00:49:12.530Z,2.40
2022-08-17T00:49:44.852Z,2.70
2022-08-17T00:50:22.061Z,2.93
2022-08-17T00:50:57.934Z,2.87
2022-08-17T00:51:34.570Z,2.77
2022-08-17T00:52:15.709Z,2.77
2022-08-17T00:52:56.855Z,2.57
2022-08-17T00:53:31.593Z,2.83
2022-08-17T00:54:26.134Z,2.73
2022-08-17T00:54:59.109Z,2.63
2022-08-17T00:55:32.990Z,2.60
2022-08-17T00:56:10.159Z,2.87
2022-08-17T00:56:45.242Z,2.87
2022-08-17T00:57:20.339Z,2.80
2022-08-17T00:57:59.694Z,2.70
2022-08-17T00:58:36.286Z,2.70
2022-08-17T00:59:10.034Z,2.97
2022-08-17T00:59:55.963Z,2.90
2022-08-17T01:00:39.373Z,2.87
2022-08-17T01:01:21.867Z,2.60
2022-08-17T01:01:54.597Z,2.43
2022-08-17T01:02:28.334Z,2.67
2022-08-17T01:03:06.764Z,2.63
2022-08-17T01:03:39.521Z,2.60
2022-08-17T01:04:13.635Z,2.47
2022-08-17T01:04:51.138Z,3.00
2022-08-17T01:05:25.672Z,2.60
2022-08-17T01:06:00.137Z,3.00
2022-08-17T01:06:35.630Z,2.83
2022-08-17T01:07:08.345Z,3.00
2022-08-17T01:07:40.851Z,2.60
2022-08-17T01:08:19.758Z,2.70
2022-08-17T01:08:57.316Z,2.53
2022-08-17T01:09:33.649Z,2.40
2022-08-17T01:10:58.194Z,2.60
2022-08-17T01:11:05.515Z,2.60
2022-08-17T01:11:40.754Z,2.80
2022-08-17T01:12:13.216Z,2.53
2022-08-17T01:12:45.654Z,2.70
2022-08-17T01:13:20.897Z,2.80
2022-08-17T01:13:54.094Z,3.10
2022-08-17T01:14:26.777Z,2.57
2022-08-17T01:15:01.699Z,2.33
2022-08-17T01:15:36.890Z,2.73
2022-08-17T01:16:16.214Z,3.00
2022-08-17T01:16:52.618Z,2.67
2022-08-17T01:17:24.974Z,2.60
2022-08-17T01:17:57.538Z,2.90
2022-08-17T01:18:32.491Z,2.67
2022-08-17T01:19:07.041Z,2.23
2022-08-17T01:19:41.970Z,2.67
2022-08-17T01:20:17.014Z,2.67
2022-08-17T01:20:51.364Z,2.80
2022-08-17T01:21:29.518Z,2.40
2022-08-17T01:22:09.005Z,2.77
2022-08-17T01:22:43.995Z,2.53
2022-08-17T01:23:20.411Z,3.00
2022-08-17T01:23:56.135Z,3.10
2022-08-17T01:24:29.206Z,2.90
2022-08-17T01:25:05.189Z,2.70
2022-08-17T01:25:40.607Z,2.60
2022-08-17T01:26:13.149Z,2.97
2022-08-17T01:26:49.152Z,2.97
2022-08-17T01:27:21.724Z,2.60
2022-08-17T01:27:54.109Z,2.77
2022-08-17T01:28:36.401Z,2.53
2022-08-17T01:29:24.497Z,2.53
2022-08-17T01:30:02.611Z,2.70
2022-08-17T01:30:57.142Z,2.70
2022-08-17T01:31:29.926Z,2.80
2022-08-17T01:32:07.481Z,2.60
2022-08-17T01:32:40.718Z,2.90
2022-08-17T01:33:13.189Z,2.67
2022-08-17T01:33:48.256Z,3.07
2022-08-17T01:34:21.151Z,2.70
2022-08-17T01:34:54.255Z,3.03
2022-08-17T01:35:26.711Z,3.60
2022-08-17T01:36:01.954Z,2.50
2022-08-17T01:36:34.289Z,3.10
2022-08-17T01:37:06.612Z,2.90
2022-08-17T01:37:43.667Z,2.87
2022-08-17T01:38:19.840Z,2.90
2022-08-17T01:39:02.229Z,2.80
2022-08-17T01:39:37.193Z,2.70
2022-08-17T01:40:15.530Z,2.90
2022-08-17T01:40:57.373Z,2.70
2022-08-17T01:41:30.318Z,2.60
2022-08-17T01:42:07.098Z,2.77
2022-08-17T01:42:46.085Z,2.70
2022-08-17T01:43:22.835Z,2.67
2022-08-17T01:43:57.362Z,2.87
2022-08-17T01:44:32.387Z,2.83
2022-08-17T01:45:08.461Z,2.60
2022-08-17T01:45:44.599Z,2.80
2022-08-17T01:46:24.681Z,2.70
2022-08-17T01:46:57.027Z,3.20
2022-08-17T01:47:29.838Z,2.73
2022-08-17T01:48:06.391Z,3.10
2022-08-17T01:48:39.059Z,2.80
2022-08-17T01:49:12.331Z,2.90
2022-08-17T01:49:47.719Z,2.90
2022-08-17T01:50:22.853Z,3.10
2022-08-17T01:50:55.167Z,3.20
2022-08-17T01:51:33.642Z,2.70
2022-08-17T01:52:08.375Z,2.70
2022-08-17T01:52:41.085Z,2.60
2022-08-17T01:53:18.322Z,2.90
2022-08-17T01:53:55.961Z,2.73
2022-08-17T01:54:31.060Z,2.83
2022-08-17T01:55:04.892Z,2.33
2022-08-17T01:55:41.035Z,2.97
2022-08-17T01:56:18.179Z,2.70
2022-08-17T01:56:51.651Z,2.40
2022-08-17T01:57:23.984Z,2.93
2022-08-17T01:57:59.034Z,2.93
2022-08-17T01:58:32.866Z,2.57
2022-08-17T01:59:05.333Z,2.70
2022-08-17T01:59:40.294Z,3.20
2022-08-17T02:00:14.161Z,2.70
2022-08-17T02:01:00.250Z,2.77
2022-08-17T02:01:37.557Z,3.10
2022-08-17T02:02:10.470Z,2.97
2022-08-17T02:02:46.031Z,2.77
2022-08-17T02:03:21.084Z,2.80
2022-08-17T02:03:59.574Z,2.50
2022-08-17T02:04:34.457Z,2.87
2022-08-17T02:05:10.726Z,3.07
2022-08-17T02:05:43.090Z,3.00
2022-08-17T02:06:27.650Z,2.80
2022-08-17T02:07:03.224Z,2.73
2022-08-17T02:07:59.709Z,3.10
2022-08-17T02:08:39.528Z,3.17
2022-08-17T02:09:32.682Z,2.30
2022-08-17T02:10:18.961Z,2.70
2022-08-17T02:10:52.526Z,2.73
2022-08-17T02:11:24.996Z,2.70
2022-08-17T02:12:37.233Z,2.57
2022-08-17T02:12:56.349Z,2.83
2022-08-17T02:13:29.891Z,3.00
2022-08-17T02:14:05.287Z,2.67
2022-08-17T02:14:37.606Z,2.70
2022-08-17T02:15:12.581Z,2.43
2022-08-17T02:15:47.714Z,2.67
2022-08-17T02:16:20.197Z,2.83
2022-08-17T02:16:53.211Z,2.77
2022-08-17T02:17:28.208Z,3.07
2022-08-17T02:18:01.579Z,2.77
2022-08-17T02:18:33.901Z,2.90
2022-08-17T02:19:10.682Z,2.83
2022-08-17T02:19:43.053Z,2.70
2022-08-17T02:20:15.618Z,2.80
2022-08-17T02:21:10.946Z,2.70
2022-08-17T02:21:47.447Z,2.97
2022-08-17T02:22:19.997Z,2.77
2022-08-17T02:22:54.986Z,2.90
2022-08-17T02:23:29.571Z,2.83
2022-08-17T02:24:02.516Z,2.60
2022-08-17T02:25:00.318Z,2.90
2022-08-17T02:25:34.182Z,3.00
2022-08-17T02:26:07.994Z,2.97
2022-08-17T02:26:43.146Z,2.80
2022-08-17T02:27:15.498Z,2.70
2022-08-17T02:27:47.932Z,2.60
2022-08-17T02:28:22.885Z,2.97
2022-08-17T02:28:55.674Z,2.83
2022-08-17T02:29:28.015Z,2.60
2022-08-17T02:30:02.939Z,2.83
2022-08-17T02:31:01.206Z,3.37
2022-08-17T02:31:27.738Z,2.80
2022-08-17T02:32:02.780Z,2.90
2022-08-17T02:32:35.111Z,2.97
2022-08-17T02:33:09.386Z,3.20
2022-08-17T02:33:44.468Z,3.03
2022-08-17T02:34:16.864Z,2.70
2022-08-17T02:34:49.314Z,3.00
2022-08-17T02:35:24.626Z,2.53
2022-08-17T02:35:57.991Z,3.30
2022-08-17T02:36:30.348Z,3.07
2022-08-17T02:37:05.401Z,3.20
2022-08-17T02:37:37.721Z,2.63
2022-08-17T02:38:10.384Z,2.90
2022-08-17T02:38:45.693Z,2.63
2022-08-17T02:39:18.754Z,2.90
2022-08-17T02:39:53.904Z,2.50
2022-08-17T02:40:32.799Z,3.27
2022-08-17T02:41:09.401Z,3.30
2022-08-17T02:41:41.718Z,3.27
2022-08-17T02:42:17.029Z,3.00
2022-08-17T02:42:49.806Z,3.43
2022-08-17T02:43:22.230Z,2.97
2022-08-17T02:43:57.150Z,3.17
2022-08-17T02:44:39.358Z,3.30
2022-08-17T02:45:17.694Z,3.60
2022-08-17T02:45:50.191Z,3.20
2022-08-17T02:46:23.525Z,3.40
2022-08-17T02:46:58.438Z,2.90
2022-08-17T02:47:31.370Z,2.97
2022-08-17T02:48:04.765Z,3.30
2022-08-17T02:48:40.025Z,3.20
2022-08-17T02:49:12.378Z,3.10
2022-08-17T02:49:54.281Z,2.87
2022-08-17T02:50:30.674Z,2.77
2022-08-17T02:51:03.634Z,3.00
2022-08-17T02:51:36.259Z,2.90
2022-08-17T02:52:08.766Z,2.90
2022-08-17T02:52:47.441Z,2.87
2022-08-17T02:53:35.545Z,3.33
2022-08-17T02:54:40.235Z,3.63
2022-08-17T02:55:06.718Z,3.57
2022-08-17T02:55:41.642Z,3.87
2022-08-17T02:56:16.632Z,3.57
2022-08-17T02:56:48.969Z,3.77
2022-08-17T02:57:21.465Z,3.93
2022-08-17T02:57:57.006Z,3.70
2022-08-17T02:58:34.635Z,3.40
2022-08-17T02:59:07.964Z,3.20
2022-08-17T02:59:48.819Z,3.07
2022-08-17T03:00:24.322Z,3.37
2022-08-17T03:01:00.886Z,3.30
2022-08-17T03:01:36.094Z,3.50
2022-08-17T03:02:11.260Z,3.50
2022-08-17T03:02:47.537Z,3.30
2022-08-17T03:03:19.869Z,3.20
2022-08-17T03:03:52.454Z,3.03
2022-08-17T03:04:28.997Z,3.50
2022-08-17T03:05:02.534Z,2.90
2022-08-17T03:05:40.070Z,2.97
2022-08-17T03:06:16.637Z,3.13
2022-08-17T03:06:51.641Z,3.57
2022-08-17T03:07:24.135Z,3.20
2022-08-17T03:08:13.239Z,3.53
2022-08-17T03:08:46.161Z,3.33
2022-08-17T03:09:21.121Z,3.53
2022-08-17T03:09:54.139Z,3.70
2022-08-17T03:10:30.148Z,3.50
2022-08-17T03:11:02.863Z,3.00
2022-08-17T03:11:39.402Z,3.50
2022-08-17T03:12:13.798Z,3.13
2022-08-17T03:12:46.722Z,3.57
2022-08-17T03:13:22.336Z,3.33
2022-08-17T03:13:57.890Z,3.07
2022-08-17T03:14:32.674Z,3.73
2022-08-17T03:15:12.899Z,3.50
2022-08-17T03:15:46.415Z,2.87
2022-08-17T03:16:21.307Z,3.20
2022-08-17T03:16:59.454Z,3.37
2022-08-17T03:17:31.843Z,3.10
2022-08-17T03:18:04.627Z,3.70
2022-08-17T03:18:43.428Z,3.63
2022-08-17T03:19:15.904Z,3.10
2022-08-17T03:19:48.264Z,3.90
2022-08-17T03:20:24.970Z,3.70
2022-08-17T03:21:04.619Z,3.50
2022-08-17T03:21:37.601Z,3.23
2022-08-17T03:22:36.128Z,3.57
2022-08-17T03:23:04.989Z,3.27
2022-08-17T03:23:41.267Z,3.30
2022-08-17T03:24:15.215Z,3.40
2022-08-17T03:24:53.004Z,3.10
2022-08-17T03:25:32.132Z,3.20
2022-08-17T03:26:12.371Z,3.40
2022-08-17T03:26:50.501Z,3.67
2022-08-17T03:27:26.007Z,3.53
2022-08-17T03:28:00.924Z,3.13
2022-08-17T03:28:35.965Z,3.57
2022-08-17T03:29:10.249Z,3.00
2022-08-17T03:29:42.632Z,3.37
2022-08-17T03:30:29.651Z,3.27
2022-08-17T03:31:06.402Z,3.50
2022-08-17T03:31:44.403Z,2.90
2022-08-17T03:32:20.840Z,3.37
2022-08-17T03:32:55.059Z,3.40
2022-08-17T03:33:27.593Z,3.70
2022-08-17T03:34:02.763Z,3.57
2022-08-17T03:34:35.091Z,3.30
2022-08-17T03:35:08.914Z,3.50
2022-08-17T03:35:46.291Z,3.23
2022-08-17T03:36:23.774Z,3.73
2022-08-17T03:36:59.385Z,3.00
2022-08-17T03:37:33.354Z,3.50
2022-08-17T03:38:06.428Z,3.30
2022-08-17T03:38:41.982Z,3.60
2022-08-17T03:39:15.289Z,3.30
2022-08-17T03:39:47.883Z,3.00
2022-08-17T03:40:55.183Z,3.30
2022-08-17T03:41:20.313Z,3.40
2022-08-17T03:41:55.266Z,3.00
2022-08-17T03:42:32.513Z,3.10
2022-08-17T03:43:06.857Z,3.30
2022-08-17T03:43:41.852Z,2.90
2022-08-17T03:44:14.280Z,3.17
2022-08-17T03:44:49.088Z,3.50
2022-08-17T03:45:43.555Z,3.23
2022-08-17T03:46:34.947Z,3.70
2022-08-17T03:47:22.874Z,3.57
2022-08-17T03:48:11.767Z,3.17
2022-08-17T03:48:59.051Z,3.60
2022-08-17T03:49:46.359Z,3.50
2022-08-17T03:50:35.731Z,3.83
2022-08-17T03:51:26.778Z,3.77
2022-08-17T03:52:23.865Z,3.70
2022-08-17T03:53:13.665Z,3.63
2022-08-17T03:54:06.412Z,3.40
2022-08-17T03:54:58.864Z,3.97
2022-08-17T03:55:49.022Z,3.73
2022-08-17T03:56:39.184Z,3.57
2022-08-17T03:57:14.413Z,4.00
2022-08-17T03:57:46.768Z,3.50
2022-08-17T03:58:21.028Z,3.43
2022-08-17T03:58:57.123Z,4.00
2022-08-17T03:59:30.051Z,3.80
2022-08-17T04:00:05.226Z,3.63
2022-08-17T04:00:46.119Z,3.70
2022-08-17T04:01:18.600Z,3.43
2022-08-17T04:01:55.824Z,3.20
2022-08-17T04:02:31.969Z,3.83
2022-08-17T04:03:04.659Z,3.80
2022-08-17T04:03:39.586Z,3.50
2022-08-17T04:04:12.775Z,3.60
2022-08-17T04:04:45.571Z,3.67
2022-08-17T04:05:28.184Z,3.63
2022-08-17T04:06:02.374Z,3.50
2022-08-17T04:06:34.722Z,3.37
2022-08-17T04:07:12.765Z,3.83
2022-08-17T04:07:45.272Z,3.67
2022-08-17T04:08:18.370Z,3.53
2022-08-17T04:08:53.666Z,3.60
2022-08-17T04:09:26.124Z,3.40
2022-08-17T04:10:02.330Z,3.30
2022-08-17T04:10:45.034Z,3.70
2022-08-17T04:11:18.715Z,3.67
2022-08-17T04:11:54.971Z,3.27
2022-08-17T04:12:33.573Z,3.27
2022-08-17T04:13:06.609Z,3.33
2022-08-17T04:13:40.505Z,3.27
2022-08-17T04:14:19.651Z,3.60
2022-08-17T04:14:54.665Z,3.30
2022-08-17T04:15:28.373Z,3.60
2022-08-17T04:16:05.375Z,3.53
2022-08-17T04:16:40.317Z,3.83
2022-08-17T04:17:12.762Z,3.83
2022-08-17T04:17:49.330Z,3.57
2022-08-17T04:18:28.922Z,3.27
2022-08-17T04:19:08.133Z,3.80
2022-08-17T04:19:43.834Z,3.30
2022-08-17T04:20:21.868Z,3.43
2022-08-17T04:20:54.342Z,3.57
2022-08-17T04:21:29.670Z,3.50
2022-08-17T04:22:02.242Z,3.47
2022-08-17T04:22:34.616Z,3.43
2022-08-17T04:23:13.495Z,3.93
2022-08-17T04:23:49.338Z,3.70
2022-08-17T04:24:22.190Z,3.47
2022-08-17T04:24:57.178Z,3.87
2022-08-17T04:25:39.719Z,3.47
2022-08-17T04:26:52.925Z,3.33
2022-08-17T04:27:12.383Z,3.33
2022-08-17T04:27:44.762Z,3.33
2022-08-17T04:28:18.288Z,3.43
2022-08-17T04:28:53.308Z,3.83
2022-08-17T04:29:26.212Z,3.70
2022-08-17T04:30:21.254Z,3.67
2022-08-17T04:30:53.559Z,3.50
2022-08-17T04:31:27.089Z,3.37
2022-08-17T04:32:02.267Z,3.43
2022-08-17T04:33:00.689Z,3.43
2022-08-17T04:33:42.718Z,3.20
2022-08-17T04:34:15.078Z,3.40
2022-08-17T04:34:53.901Z,3.60
2022-08-17T04:35:31.704Z,3.57
2022-08-17T04:36:06.069Z,3.33
2022-08-17T04:36:41.142Z,3.67
2022-08-17T04:37:22.710Z,3.60
2022-08-17T04:37:55.196Z,3.27
2022-08-17T04:38:33.714Z,3.80
2022-08-17T04:39:06.080Z,3.30
2022-08-17T04:39:38.454Z,3.40
2022-08-17T04:40:39.074Z,3.30
2022-08-17T04:41:27.222Z,2.97
2022-08-17T04:42:17.124Z,3.47
2022-08-17T04:43:07.379Z,2.93
2022-08-17T04:43:41.836Z,2.60
2022-08-17T04:44:15.398Z,2.73
2022-08-17T04:45:11.232Z,3.10
2022-08-17T04:45:55.486Z,3.03
2022-08-17T04:46:34.673Z,2.80
2022-08-17T04:47:07.357Z,3.27
2022-08-17T04:47:43.063Z,3.17
2022-08-17T04:48:18.014Z,3.10
2022-08-17T04:48:52.218Z,2.80
2022-08-17T04:49:27.181Z,3.00
2022-08-17T04:50:02.518Z,2.77
2022-08-17T04:50:35.146Z,3.03
2022-08-17T04:51:10.533Z,3.30
2022-08-17T04:51:55.851Z,3.10
2022-08-17T04:52:43.586Z,3.03
2022-08-17T04:53:17.394Z,3.00
2022-08-17T04:53:55.025Z,3.30
2022-08-17T04:54:27.783Z,3.30
2022-08-17T04:55:03.787Z,3.30
2022-08-17T04:55:38.915Z,2.90
2022-08-17T04:56:16.745Z,3.20
2022-08-17T04:56:50.641Z,3.20
2022-08-17T04:57:25.568Z,3.37
2022-08-17T04:57:57.947Z,3.07
2022-08-17T04:58:32.988Z,2.93
2022-08-17T04:59:11.774Z,3.00
2022-08-17T04:59:44.356Z,3.47
2022-08-17T05:00:16.862Z,3.23
2022-08-17T05:00:49.271Z,3.00
2022-08-17T05:01:25.549Z,3.10
2022-08-17T05:01:58.170Z,3.17
2022-08-17T05:02:30.473Z,3.23
2022-08-17T05:03:05.458Z,2.90
2022-08-17T05:03:38.078Z,3.60
2022-08-17T05:04:21.417Z,2.80
2022-08-17T05:05:07.739Z,3.20
2022-08-17T05:05:43.245Z,3.60
2022-08-17T05:06:18.267Z,3.07
2022-08-17T05:06:51.165Z,3.10
2022-08-17T05:07:30.888Z,3.43
2022-08-17T05:08:05.782Z,3.70
2022-08-17T05:08:38.928Z,2.70
2022-08-17T05:09:14.336Z,3.10
2022-08-17T05:09:47.019Z,3.40
2022-08-17T05:10:20.222Z,3.47
2022-08-17T05:10:55.141Z,3.60
2022-08-17T05:11:29.118Z,3.50
2022-08-17T05:12:01.975Z,4.00
2022-08-17T05:12:36.854Z,3.30
2022-08-17T05:13:11.329Z,4.13
2022-08-17T05:13:50.374Z,3.93
2022-08-17T05:14:22.864Z,4.10
2022-08-17T05:15:11.755Z,3.73
2022-08-17T05:15:48.698Z,4.40
2022-08-17T05:16:21.807Z,4.60
2022-08-17T05:16:56.750Z,4.00
2022-08-17T05:17:29.115Z,4.03
2022-08-17T05:18:01.495Z,4.03
2022-08-17T05:18:37.357Z,4.60
2022-08-17T05:19:09.634Z,4.60
2022-08-17T05:19:41.993Z,4.70
2022-08-17T05:20:17.009Z,3.83
2022-08-17T05:20:49.372Z,4.10
2022-08-17T05:21:28.772Z,5.10
2022-08-17T05:22:04.880Z,4.70
2022-08-17T05:22:37.233Z,4.20
2022-08-17T05:23:14.997Z,4.43
2022-08-17T05:23:50.354Z,4.27
2022-08-17T05:24:43.124Z,4.30
2022-08-17T05:25:25.734Z,4.60
2022-08-17T05:26:00.790Z,4.13
2022-08-17T05:26:34.500Z,4.70
2022-08-17T05:27:08.813Z,4.23
2022-08-17T05:27:43.768Z,4.50
2022-08-17T05:28:17.346Z,4.10
2022-08-17T05:28:53.750Z,3.60
2022-08-17T05:29:35.302Z,4.60
2022-08-17T05:30:09.104Z,4.03
2022-08-17T05:30:42.777Z,3.80
2022-08-17T05:31:18.011Z,4.57
2022-08-17T05:31:50.574Z,4.17
2022-08-17T05:32:38.185Z,4.27
2022-08-17T05:33:16.685Z,4.00
2022-08-17T05:33:49.646Z,4.00
2022-08-17T05:34:24.595Z,4.40
2022-08-17T05:35:00.077Z,3.67
2022-08-17T05:35:35.451Z,4.03
2022-08-17T05:36:41.933Z,4.47
2022-08-17T05:37:05.658Z,4.47
2022-08-17T05:37:40.571Z,4.70
2022-08-17T05:38:13.275Z,4.60
2022-08-17T05:38:48.222Z,4.60
2022-08-17T05:39:20.540Z,4.37
2022-08-17T05:39:54.096Z,4.77
2022-08-17T05:40:32.918Z,4.40
2022-08-17T05:41:07.480Z,4.23
2022-08-17T05:41:42.551Z,3.93
2022-08-17T05:42:19.065Z,4.50
2022-08-17T05:42:51.480Z,4.20
2022-08-17T05:43:29.644Z,4.20
2022-08-17T05:44:05.475Z,4.60
2022-08-17T05:44:40.574Z,4.17
2022-08-17T05:45:13.195Z,4.67
2022-08-17T05:45:55.319Z,3.80
2022-08-17T05:46:43.294Z,3.70
2022-08-17T05:47:15.659Z,5.00
2022-08-17T05:47:48.175Z,4.10
2022-08-17T05:48:39.675Z,4.60
2022-08-17T05:49:13.341Z,4.50
2022-08-17T05:49:49.199Z,4.63
2022-08-17T05:50:27.011Z,3.70
2022-08-17T05:51:06.389Z,3.93
2022-08-17T05:51:51.339Z,4.33
2022-08-17T05:52:27.340Z,4.50
2022-08-17T05:53:04.171Z,4.20
2022-08-17T05:53:43.082Z,4.20
2022-08-17T05:54:29.836Z,4.37
2022-08-17T05:55:16.314Z,4.37
2022-08-17T05:55:51.423Z,4.20
2022-08-17T05:56:39.489Z,4.30
2022-08-17T05:57:42.393Z,4.30
2022-08-17T05:58:26.514Z,4.90
2022-08-17T05:59:08.298Z,4.10
2022-08-17T05:59:48.449Z,4.50
2022-08-17T06:00:26.461Z,4.20
2022-08-17T06:01:05.886Z,4.60
2022-08-17T06:01:44.391Z,4.67
2022-08-17T06:02:26.008Z,4.87
2022-08-17T06:03:16.783Z,4.60
2022-08-17T06:03:55.873Z,4.63
2022-08-17T06:04:37.713Z,4.33
2022-08-17T06:05:18.050Z,4.80
2022-08-17T06:06:01.431Z,5.30
2022-08-17T06:06:39.896Z,5.23
2022-08-17T06:07:17.917Z,5.53
2022-08-17T06:07:57.014Z,5.27
2022-08-17T06:08:35.101Z,5.40
2022-08-17T06:09:28.912Z,5.60
2022-08-17T06:10:09.969Z,5.23
2022-08-17T06:10:50.963Z,5.10
2022-08-17T06:11:28.350Z,5.67
2022-08-17T06:12:06.791Z,4.73
2022-08-17T06:12:59.590Z,4.97
2022-08-17T06:13:43.775Z,5.90
2022-08-17T06:14:37.831Z,4.90
2022-08-17T06:15:27.773Z,5.37
2022-08-17T06:16:32.959Z,4.80
2022-08-17T06:17:01.341Z,4.80
2022-08-17T06:17:36.807Z,4.93
2022-08-17T06:18:10.249Z,4.80
2022-08-17T06:18:49.634Z,4.83
2022-08-17T06:19:28.494Z,5.43
2022-08-17T06:20:07.207Z,5.30
2022-08-17T06:20:46.535Z,4.73
2022-08-17T06:21:20.537Z,5.10
2022-08-17T06:22:02.823Z,5.43
2022-08-17T06:22:38.254Z,4.90
2022-08-17T06:23:13.273Z,4.40
2022-08-17T06:23:51.932Z,4.50
2022-08-17T06:24:28.709Z,5.27
2022-08-17T06:25:03.850Z,5.00
2022-08-17T06:25:47.971Z,5.23
2022-08-17T06:26:23.305Z,4.90
2022-08-17T06:27:10.953Z,4.70
2022-08-17T06:27:47.104Z,5.17
2022-08-17T06:28:33.027Z,5.13
2022-08-17T06:29:09.011Z,5.33
2022-08-17T06:29:58.147Z,4.43
2022-08-17T06:30:59.522Z,4.70
2022-08-17T06:31:35.059Z,4.93
2022-08-17T06:32:13.999Z,5.30
2022-08-17T06:32:48.992Z,5.60
2022-08-17T06:33:23.110Z,5.50
2022-08-17T06:33:59.082Z,5.27
2022-08-17T06:34:32.127Z,5.43
2022-08-17T06:35:11.535Z,4.97
2022-08-17T06:35:52.202Z,4.63
2022-08-17T06:36:40.303Z,5.70
2022-08-17T06:37:26.005Z,5.47
2022-08-17T06:38:04.444Z,4.70
2022-08-17T06:38:46.809Z,5.00
2022-08-17T06:39:28.732Z,5.23
2022-08-17T06:40:18.509Z,5.20
2022-08-17T06:40:57.620Z,5.67
2022-08-17T06:41:43.118Z,5.20
2022-08-17T06:42:54.944Z,4.67
2022-08-17T06:43:27.454Z,5.37
2022-08-17T06:44:07.199Z,5.70
2022-08-17T06:44:51.411Z,4.80
2022-08-17T06:45:31.431Z,5.07
2022-08-17T06:46:11.548Z,4.47
2022-08-17T06:46:48.663Z,5.20
2022-08-17T06:47:28.932Z,5.00
2022-08-17T06:48:09.169Z,4.37
2022-08-17T06:48:50.175Z,4.57
2022-08-17T06:49:28.794Z,4.60
2022-08-17T06:50:14.687Z,4.80
2022-08-17T06:50:50.062Z,4.77
2022-08-17T06:51:28.395Z,4.30
2022-08-17T06:52:12.422Z,4.47
2022-08-17T06:53:14.123Z,4.50
2022-08-17T06:53:49.522Z,4.83
2022-08-17T06:54:27.541Z,5.10
2022-08-17T06:55:05.335Z,4.73
2022-08-17T06:55:46.691Z,4.70
2022-08-17T06:56:27.140Z,4.70
2022-08-17T06:57:25.072Z,5.07
2022-08-17T06:58:05.903Z,5.20
2022-08-17T06:58:49.685Z,4.50
2022-08-17T06:59:54.147Z,4.83
2022-08-17T07:00:24.129Z,4.57
2022-08-17T07:01:05.975Z,4.53
2022-08-17T07:01:39.730Z,4.63
2022-08-17T07:02:52.317Z,4.90
2022-08-17T07:03:32.528Z,5.10
2022-08-17T07:04:12.113Z,4.87
2022-08-17T07:04:44.882Z,4.77
2022-08-17T07:05:21.975Z,4.90
2022-08-17T07:05:56.042Z,4.53
2022-08-17T07:06:38.041Z,5.07
2022-08-17T07:07:26.937Z,4.63
2022-08-17T07:08:02.909Z,4.33
2022-08-17T07:08:50.374Z,4.60
2022-08-17T07:09:28.210Z,5.03
2022-08-17T07:10:04.091Z,4.77
2022-08-17T07:10:40.026Z,4.13
2022-08-17T07:11:14.593Z,4.67
2022-08-17T07:11:53.437Z,4.70
2022-08-17T07:12:30.034Z,5.07
2022-08-17T07:13:17.323Z,4.83
2022-08-17T07:13:59.965Z,4.13
2022-08-17T07:14:36.824Z,4.67
2022-08-17T07:15:13.264Z,4.23
2022-08-17T07:15:51.778Z,4.20
2022-08-17T07:16:36.437Z,4.73
2022-08-17T07:17:14.382Z,4.87
2022-08-17T07:17:48.518Z,4.60
2022-08-17T07:18:21.526Z,4.90
2022-08-17T07:18:57.858Z,4.40
2022-08-17T07:19:32.986Z,4.53
2022-08-17T07:20:11.087Z,5.20
2022-08-17T07:20:47.622Z,4.47
2022-08-17T07:21:38.726Z,4.57
2022-08-17T07:22:18.817Z,5.27
2022-08-17T07:22:59.905Z,4.80
2022-08-17T07:23:40.198Z,5.07
2022-08-17T07:24:29.662Z,4.33
2022-08-17T07:25:08.399Z,4.33
2022-08-17T07:25:40.747Z,4.90
2022-08-17T07:26:13.588Z,4.63
2022-08-17T07:26:49.662Z,4.20
2022-08-17T07:27:27.663Z,4.80
2022-08-17T07:28:07.846Z,4.70
2022-08-17T07:28:40.375Z,5.10
2022-08-17T07:29:18.793Z,4.50
2022-08-17T07:29:57.646Z,4.63
2022-08-17T07:30:44.600Z,5.43
2022-08-17T07:31:22.257Z,4.70
2022-08-17T07:31:57.561Z,4.80
2022-08-17T07:32:36.922Z,4.13
2022-08-17T07:33:12.549Z,4.67
2022-08-17T07:34:02.710Z,4.03
2022-08-17T07:35:00.191Z,4.90
2022-08-17T07:35:41.234Z,4.70
2022-08-17T07:36:29.257Z,4.97
2022-08-17T07:37:03.527Z,4.80
2022-08-17T07:37:39.234Z,4.53
2022-08-17T07:38:25.185Z,4.50
2022-08-17T07:38:58.984Z,4.90
2022-08-17T07:39:31.701Z,4.60
2022-08-17T07:40:19.520Z,4.60
2022-08-17T07:41:02.275Z,4.80
2022-08-17T07:41:57.710Z,4.30
2022-08-17T07:42:31.441Z,4.10
2022-08-17T07:43:18.758Z,4.20
2022-08-17T07:43:59.115Z,4.30
2022-08-17T07:44:31.563Z,4.20
2022-08-17T07:45:24.354Z,4.50
2022-08-17T07:46:31.560Z,4.30
2022-08-17T07:47:31.568Z,3.80
2022-08-17T07:48:22.566Z,4.80
2022-08-17T07:48:59.683Z,4.50
2022-08-17T07:49:35.557Z,3.83
2022-08-17T07:50:27.735Z,4.47
2022-08-17T07:51:00.338Z,4.37
2022-08-17T07:51:36.777Z,4.67
2022-08-17T07:52:24.001Z,4.27
2022-08-17T07:53:18.663Z,4.70
2022-08-17T07:53:51.369Z,4.40
2022-08-17T07:54:31.098Z,4.60
2022-08-17T07:55:27.475Z,4.60
2022-08-17T07:56:02.403Z,4.10
2022-08-17T07:56:40.541Z,4.23
2022-08-17T07:57:34.570Z,4.07
2022-08-17T07:58:07.068Z,4.30
2022-08-17T07:58:39.350Z,3.77
2022-08-17T07:59:14.993Z,3.40
2022-08-17T08:00:16.886Z,4.60
2022-08-17T08:01:04.627Z,3.97
2022-08-17T08:01:42.054Z,3.87
2022-08-17T08:02:31.759Z,4.07
2022-08-17T08:03:23.705Z,4.10
2022-08-17T08:03:59.242Z,4.10
2022-08-17T08:05:50.748Z,4.37
2022-08-17T08:06:26.474Z,4.60
2022-08-17T08:07:02.870Z,4.33
2022-08-17T08:07:39.383Z,3.70
2022-08-17T08:08:33.629Z,4.20
2022-08-17T08:09:06.022Z,4.20
2022-08-17T08:09:44.613Z,4.67
2022-08-17T08:10:28.250Z,4.07
2022-08-17T08:11:07.299Z,4.00
2022-08-17T08:11:44.360Z,4.90
2022-08-17T08:12:37.734Z,5.10
2022-08-17T08:13:12.369Z,4.50
2022-08-17T08:13:46.775Z,4.07
2022-08-17T08:14:29.445Z,4.30
2022-08-17T08:15:09.391Z,4.33
2022-08-17T08:15:54.097Z,4.37
2022-08-17T08:16:29.772Z,4.20
2022-08-17T08:17:09.291Z,4.17
2022-08-17T08:17:54.223Z,4.43
2022-08-17T08:18:53.803Z,4.43
2022-08-17T08:19:27.878Z,4.17
2022-08-17T08:20:40.836Z,4.10
2022-08-17T08:20:59.499Z,4.37
2022-08-17T08:21:48.323Z,4.10
2022-08-17T08:22:29.648Z,4.27
2022-08-17T08:23:07.590Z,4.17
2022-08-17T08:23:47.169Z,4.43
2022-08-17T08:24:36.826Z,4.00
2022-08-17T08:25:24.477Z,4.63
2022-08-17T08:26:09.700Z,4.60
2022-08-17T08:26:50.561Z,4.50
2022-08-17T08:27:33.541Z,4.43
2022-08-17T08:28:18.702Z,3.97
2022-08-17T08:28:55.678Z,3.87
2022-08-17T08:29:32.346Z,4.40
2022-08-17T08:30:12.247Z,3.83